sensor_id;sensor_type;location;lat;lon;timestamp;P1;durP1;ratioP1;P2;durP2;ratioP2
16330;SDS011;8275;48.206;16.340;2023-08-12T00:01:31;3.35;;;3.15;;
16330;SDS011;8275;48.206;16.340;2023-08-12T00:03:59;3.97;;;3.00;;
16330;SDS011;8275;48.206;16.340;2023-08-12T00:06:29;3.92;;;3.63;;
16330;SDS011;8275;48.206;16.340;2023-08-12T00:08:58;5.15;;;3.53;;
16330;SDS011;8275;48.206;16.340;2023-08-12T00:11:26;5.10;;;3.20;;
16330;SDS011;8275;48.206;16.340;2023-08-12T00:13:55;3.95;;;3.65;;
16330;SDS011;8275;48.206;16.340;2023-08-12T00:16:23;2.88;;;2.67;;
16330;SDS011;8275;48.206;16.340;2023-08-12T00:18:52;3.42;;;3.13;;
16330;SDS011;8275;48.206;16.340;2023-08-12T00:21:20;3.22;;;2.95;;
16330;SDS011;8275;48.206;16.340;2023-08-12T00:23:50;3.90;;;3.60;;
16330;SDS011;8275;48.206;16.340;2023-08-12T00:26:19;4.72;;;3.70;;
16330;SDS011;8275;48.206;16.340;2023-08-12T00:28:48;3.88;;;3.42;;
16330;SDS011;8275;48.206;16.340;2023-08-12T00:31:17;4.30;;;3.65;;
16330;SDS011;8275;48.206;16.340;2023-08-12T00:33:46;3.35;;;3.05;;
16330;SDS011;8275;48.206;16.340;2023-08-12T00:36:15;4.03;;;3.63;;
16330;SDS011;8275;48.206;16.340;2023-08-12T00:38:43;5.80;;;3.75;;
16330;SDS011;8275;48.206;16.340;2023-08-12T00:41:13;3.95;;;2.95;;
16330;SDS011;8275;48.206;16.340;2023-08-12T00:43:41;3.58;;;3.30;;
16330;SDS011;8275;48.206;16.340;2023-08-12T00:46:10;3.17;;;2.88;;
16330;SDS011;8275;48.206;16.340;2023-08-12T00:48:39;3.17;;;2.72;;
16330;SDS011;8275;48.206;16.340;2023-08-12T00:51:08;3.65;;;3.33;;
16330;SDS011;8275;48.206;16.340;2023-08-12T00:53:37;2.67;;;2.45;;
16330;SDS011;8275;48.206;16.340;2023-08-12T00:56:06;3.22;;;2.92;;
16330;SDS011;8275;48.206;16.340;2023-08-12T00:58:36;2.88;;;2.67;;
16330;SDS011;8275;48.206;16.340;2023-08-12T01:01:05;3.05;;;2.85;;
16330;SDS011;8275;48.206;16.340;2023-08-12T01:03:34;3.80;;;3.47;;
16330;SDS011;8275;48.206;16.340;2023-08-12T01:06:03;3.20;;;2.42;;
16330;SDS011;8275;48.206;16.340;2023-08-12T01:08:31;3.28;;;2.97;;
16330;SDS011;8275;48.206;16.340;2023-08-12T01:11:03;3.78;;;3.22;;
16330;SDS011;8275;48.206;16.340;2023-08-12T01:13:42;3.17;;;2.78;;
16330;SDS011;8275;48.206;16.340;2023-08-12T01:16:17;3.30;;;2.85;;
16330;SDS011;8275;48.206;16.340;2023-08-12T01:18:49;4.20;;;3.80;;
16330;SDS011;8275;48.206;16.340;2023-08-12T01:21:19;2.83;;;2.63;;
16330;SDS011;8275;48.206;16.340;2023-08-12T01:23:53;4.07;;;3.72;;
16330;SDS011;8275;48.206;16.340;2023-08-12T01:26:21;3.28;;;2.97;;
16330;SDS011;8275;48.206;16.340;2023-08-12T01:28:50;3.25;;;2.95;;
16330;SDS011;8275;48.206;16.340;2023-08-12T01:31:22;4.15;;;3.60;;
16330;SDS011;8275;48.206;16.340;2023-08-12T01:34:02;17.05;;;4.03;;
16330;SDS011;8275;48.206;16.340;2023-08-12T01:36:39;3.80;;;3.50;;
16330;SDS011;8275;48.206;16.340;2023-08-12T01:39:12;5.43;;;4.55;;
16330;SDS011;8275;48.206;16.340;2023-08-12T01:41:42;3.05;;;2.75;;
16330;SDS011;8275;48.206;16.340;2023-08-12T01:44:11;3.30;;;3.05;;
16330;SDS011;8275;48.206;16.340;2023-08-12T01:46:39;3.78;;;3.47;;
16330;SDS011;8275;48.206;16.340;2023-08-12T01:49:11;3.38;;;2.92;;
16330;SDS011;8275;48.206;16.340;2023-08-12T01:51:39;5.03;;;3.88;;
16330;SDS011;8275;48.206;16.340;2023-08-12T01:54:08;3.15;;;2.95;;
16330;SDS011;8275;48.206;16.340;2023-08-12T01:56:38;4.55;;;4.13;;
16330;SDS011;8275;48.206;16.340;2023-08-12T01:59:06;3.72;;;3.42;;
16330;SDS011;8275;48.206;16.340;2023-08-12T02:01:35;3.65;;;3.35;;
16330;SDS011;8275;48.206;16.340;2023-08-12T02:04:03;4.55;;;4.15;;
16330;SDS011;8275;48.206;16.340;2023-08-12T02:06:32;3.85;;;3.55;;
16330;SDS011;8275;48.206;16.340;2023-08-12T02:09:01;4.95;;;3.50;;
16330;SDS011;8275;48.206;16.340;2023-08-12T02:11:30;4.28;;;3.55;;
16330;SDS011;8275;48.206;16.340;2023-08-12T02:14:00;6.38;;;3.92;;
16330;SDS011;8275;48.206;16.340;2023-08-12T02:16:28;3.70;;;3.40;;
16330;SDS011;8275;48.206;16.340;2023-08-12T02:18:57;3.22;;;3.03;;
16330;SDS011;8275;48.206;16.340;2023-08-12T02:21:25;6.03;;;3.20;;
16330;SDS011;8275;48.206;16.340;2023-08-12T02:23:54;4.05;;;3.75;;
16330;SDS011;8275;48.206;16.340;2023-08-12T02:26:22;3.92;;;3.63;;
16330;SDS011;8275;48.206;16.340;2023-08-12T02:28:51;3.60;;;3.30;;
16330;SDS011;8275;48.206;16.340;2023-08-12T02:31:21;3.63;;;3.38;;
16330;SDS011;8275;48.206;16.340;2023-08-12T02:33:49;4.32;;;3.50;;
16330;SDS011;8275;48.206;16.340;2023-08-12T02:36:18;3.05;;;2.63;;
16330;SDS011;8275;48.206;16.340;2023-08-12T02:38:46;8.15;;;3.58;;
16330;SDS011;8275;48.206;16.340;2023-08-12T02:41:15;6.43;;;3.58;;
16330;SDS011;8275;48.206;16.340;2023-08-12T02:43:43;4.03;;;3.63;;
16330;SDS011;8275;48.206;16.340;2023-08-12T02:46:12;3.45;;;3.22;;
16330;SDS011;8275;48.206;16.340;2023-08-12T02:48:43;3.50;;;3.20;;
16330;SDS011;8275;48.206;16.340;2023-08-12T02:51:13;5.32;;;3.58;;
16330;SDS011;8275;48.206;16.340;2023-08-12T02:53:42;3.67;;;3.38;;
16330;SDS011;8275;48.206;16.340;2023-08-12T02:56:10;3.08;;;2.83;;
16330;SDS011;8275;48.206;16.340;2023-08-12T02:58:39;4.22;;;3.55;;
16330;SDS011;8275;48.206;16.340;2023-08-12T03:01:08;4.13;;;3.72;;
16330;SDS011;8275;48.206;16.340;2023-08-12T03:03:36;4.32;;;3.92;;
16330;SDS011;8275;48.206;16.340;2023-08-12T03:06:06;3.17;;;2.90;;
16330;SDS011;8275;48.206;16.340;2023-08-12T03:08:35;4.95;;;3.15;;
16330;SDS011;8275;48.206;16.340;2023-08-12T03:11:03;3.35;;;3.00;;
16330;SDS011;8275;48.206;16.340;2023-08-12T03:13:32;3.95;;;3.55;;
16330;SDS011;8275;48.206;16.340;2023-08-12T03:16:00;5.03;;;3.58;;
16330;SDS011;8275;48.206;16.340;2023-08-12T03:18:29;3.65;;;3.33;;
16330;SDS011;8275;48.206;16.340;2023-08-12T03:20:57;3.95;;;3.55;;
16330;SDS011;8275;48.206;16.340;2023-08-12T03:23:27;2.70;;;2.50;;
16330;SDS011;8275;48.206;16.340;2023-08-12T03:25:56;3.83;;;2.70;;
16330;SDS011;8275;48.206;16.340;2023-08-12T03:28:24;3.33;;;3.03;;
16330;SDS011;8275;48.206;16.340;2023-08-12T03:30:53;3.85;;;3.38;;
16330;SDS011;8275;48.206;16.340;2023-08-12T03:33:22;3.25;;;2.95;;
16330;SDS011;8275;48.206;16.340;2023-08-12T03:35:51;2.95;;;2.75;;
16330;SDS011;8275;48.206;16.340;2023-08-12T03:38:19;4.22;;;2.88;;
16330;SDS011;8275;48.206;16.340;2023-08-12T03:40:49;2.95;;;2.70;;
16330;SDS011;8275;48.206;16.340;2023-08-12T03:43:18;4.68;;;3.22;;
16330;SDS011;8275;48.206;16.340;2023-08-12T03:45:46;3.58;;;3.28;;
16330;SDS011;8275;48.206;16.340;2023-08-12T03:48:15;3.63;;;2.80;;
16330;SDS011;8275;48.206;16.340;2023-08-12T03:50:44;3.15;;;2.85;;
16330;SDS011;8275;48.206;16.340;2023-08-12T03:53:13;2.80;;;2.60;;
16330;SDS011;8275;48.206;16.340;2023-08-12T03:55:43;2.70;;;2.50;;
16330;SDS011;8275;48.206;16.340;2023-08-12T03:58:13;3.13;;;2.88;;
16330;SDS011;8275;48.206;16.340;2023-08-12T04:00:42;4.07;;;2.97;;
16330;SDS011;8275;48.206;16.340;2023-08-12T04:03:11;2.97;;;2.78;;
16330;SDS011;8275;48.206;16.340;2023-08-12T04:05:46;5.15;;;3.50;;
16330;SDS011;8275;48.206;16.340;2023-08-12T04:08:18;3.90;;;3.60;;
16330;SDS011;8275;48.206;16.340;2023-08-12T04:10:47;3.45;;;3.15;;
16330;SDS011;8275;48.206;16.340;2023-08-12T04:13:17;2.95;;;2.67;;
16330;SDS011;8275;48.206;16.340;2023-08-12T04:15:48;3.35;;;3.05;;
16330;SDS011;8275;48.206;16.340;2023-08-12T04:18:19;3.20;;;2.78;;
16330;SDS011;8275;48.206;16.340;2023-08-12T04:20:49;2.65;;;2.45;;
16330;SDS011;8275;48.206;16.340;2023-08-12T04:23:17;4.80;;;2.78;;
16330;SDS011;8275;48.206;16.340;2023-08-12T04:25:47;4.65;;;3.42;;
16330;SDS011;8275;48.206;16.340;2023-08-12T04:28:18;5.03;;;3.45;;
16330;SDS011;8275;48.206;16.340;2023-08-12T04:30:48;3.88;;;2.83;;
16330;SDS011;8275;48.206;16.340;2023-08-12T04:33:17;3.03;;;2.65;;
16330;SDS011;8275;48.206;16.340;2023-08-12T04:35:46;3.42;;;3.13;;
16330;SDS011;8275;48.206;16.340;2023-08-12T04:38:14;2.85;;;2.40;;
16330;SDS011;8275;48.206;16.340;2023-08-12T04:40:43;4.07;;;3.60;;
16330;SDS011;8275;48.206;16.340;2023-08-12T04:43:11;3.55;;;3.25;;
16330;SDS011;8275;48.206;16.340;2023-08-12T04:45:44;2.85;;;2.50;;
16330;SDS011;8275;48.206;16.340;2023-08-12T04:48:13;3.80;;;3.50;;
16330;SDS011;8275;48.206;16.340;2023-08-12T04:50:42;7.38;;;3.38;;
16330;SDS011;8275;48.206;16.340;2023-08-12T04:53:10;5.68;;;3.40;;
16330;SDS011;8275;48.206;16.340;2023-08-12T04:55:39;3.67;;;3.33;;
16330;SDS011;8275;48.206;16.340;2023-08-12T04:58:10;4.70;;;3.90;;
16330;SDS011;8275;48.206;16.340;2023-08-12T05:00:39;3.55;;;3.25;;
16330;SDS011;8275;48.206;16.340;2023-08-12T05:03:09;3.88;;;3.58;;
16330;SDS011;8275;48.206;16.340;2023-08-12T05:05:38;4.13;;;3.83;;
16330;SDS011;8275;48.206;16.340;2023-08-12T05:08:06;4.03;;;3.38;;
16330;SDS011;8275;48.206;16.340;2023-08-12T05:10:35;4.10;;;3.80;;
16330;SDS011;8275;48.206;16.340;2023-08-12T05:13:03;3.60;;;3.30;;
16330;SDS011;8275;48.206;16.340;2023-08-12T05:15:32;3.90;;;3.50;;
16330;SDS011;8275;48.206;16.340;2023-08-12T05:18:04;3.80;;;3.47;;
16330;SDS011;8275;48.206;16.340;2023-08-12T05:20:34;7.93;;;3.70;;
16330;SDS011;8275;48.206;16.340;2023-08-12T05:23:02;3.90;;;3.60;;
16330;SDS011;8275;48.206;16.340;2023-08-12T05:25:31;4.05;;;3.65;;
16330;SDS011;8275;48.206;16.340;2023-08-12T05:28:00;4.82;;;4.43;;
16330;SDS011;8275;48.206;16.340;2023-08-12T05:30:28;3.97;;;3.65;;
16330;SDS011;8275;48.206;16.340;2023-08-12T05:32:57;5.13;;;3.63;;
16330;SDS011;8275;48.206;16.340;2023-08-12T05:35:27;3.22;;;3.03;;
16330;SDS011;8275;48.206;16.340;2023-08-12T05:37:55;5.20;;;3.33;;
16330;SDS011;8275;48.206;16.340;2023-08-12T05:40:24;3.75;;;3.45;;
16330;SDS011;8275;48.206;16.340;2023-08-12T05:42:52;3.40;;;3.10;;
16330;SDS011;8275;48.206;16.340;2023-08-12T05:45:21;4.18;;;3.47;;
16330;SDS011;8275;48.206;16.340;2023-08-12T05:47:50;3.53;;;3.22;;
16330;SDS011;8275;48.206;16.340;2023-08-12T05:50:18;3.53;;;3.22;;
16330;SDS011;8275;48.206;16.340;2023-08-12T05:52:48;4.18;;;3.33;;
16330;SDS011;8275;48.206;16.340;2023-08-12T05:55:17;3.97;;;3.65;;
16330;SDS011;8275;48.206;16.340;2023-08-12T05:57:45;4.03;;;3.58;;
16330;SDS011;8275;48.206;16.340;2023-08-12T06:00:14;4.60;;;3.65;;
16330;SDS011;8275;48.206;16.340;2023-08-12T06:02:43;3.25;;;3.00;;
16330;SDS011;8275;48.206;16.340;2023-08-12T06:05:11;3.33;;;3.03;;
16330;SDS011;8275;48.206;16.340;2023-08-12T06:07:40;4.45;;;4.05;;
16330;SDS011;8275;48.206;16.340;2023-08-12T06:10:10;3.85;;;3.55;;
16330;SDS011;8275;48.206;16.340;2023-08-12T06:12:38;4.20;;;3.90;;
16330;SDS011;8275;48.206;16.340;2023-08-12T06:15:07;4.32;;;3.92;;
16330;SDS011;8275;48.206;16.340;2023-08-12T06:17:36;5.45;;;3.33;;
16330;SDS011;8275;48.206;16.340;2023-08-12T06:20:05;4.32;;;3.92;;
16330;SDS011;8275;48.206;16.340;2023-08-12T06:22:35;4.43;;;4.00;;
16330;SDS011;8275;48.206;16.340;2023-08-12T06:25:04;5.35;;;3.75;;
16330;SDS011;8275;48.206;16.340;2023-08-12T06:27:34;4.85;;;4.20;;
16330;SDS011;8275;48.206;16.340;2023-08-12T06:30:03;5.00;;;4.60;;
16330;SDS011;8275;48.206;16.340;2023-08-12T06:32:33;4.78;;;4.35;;
16330;SDS011;8275;48.206;16.340;2023-08-12T06:35:03;4.28;;;3.97;;
16330;SDS011;8275;48.206;16.340;2023-08-12T06:37:32;5.40;;;4.93;;
16330;SDS011;8275;48.206;16.340;2023-08-12T06:40:01;4.75;;;4.22;;
16330;SDS011;8275;48.206;16.340;2023-08-12T06:42:31;6.97;;;3.88;;
16330;SDS011;8275;48.206;16.340;2023-08-12T06:45:01;4.30;;;4.00;;
16330;SDS011;8275;48.206;16.340;2023-08-12T06:47:30;4.40;;;4.00;;
16330;SDS011;8275;48.206;16.340;2023-08-12T06:49:59;11.48;;;4.43;;
16330;SDS011;8275;48.206;16.340;2023-08-12T06:52:28;4.90;;;4.50;;
16330;SDS011;8275;48.206;16.340;2023-08-12T06:54:56;4.80;;;4.45;;
16330;SDS011;8275;48.206;16.340;2023-08-12T06:57:25;7.68;;;4.88;;
16330;SDS011;8275;48.206;16.340;2023-08-12T06:59:53;4.65;;;4.35;;
16330;SDS011;8275;48.206;16.340;2023-08-12T07:02:23;4.57;;;3.95;;
16330;SDS011;8275;48.206;16.340;2023-08-12T07:04:52;5.57;;;5.07;;
16330;SDS011;8275;48.206;16.340;2023-08-12T07:07:20;4.43;;;3.83;;
16330;SDS011;8275;48.206;16.340;2023-08-12T07:09:49;4.38;;;3.95;;
16330;SDS011;8275;48.206;16.340;2023-08-12T07:12:17;5.55;;;4.53;;
16330;SDS011;8275;48.206;16.340;2023-08-12T07:14:46;5.45;;;5.00;;
16330;SDS011;8275;48.206;16.340;2023-08-12T07:17:14;5.38;;;4.88;;
16330;SDS011;8275;48.206;16.340;2023-08-12T07:19:44;5.55;;;5.05;;
16330;SDS011;8275;48.206;16.340;2023-08-12T07:22:13;5.50;;;5.00;;
16330;SDS011;8275;48.206;16.340;2023-08-12T07:24:44;5.45;;;4.95;;
16330;SDS011;8275;48.206;16.340;2023-08-12T07:27:13;6.13;;;5.53;;
16330;SDS011;8275;48.206;16.340;2023-08-12T07:29:41;7.93;;;5.30;;
16330;SDS011;8275;48.206;16.340;2023-08-12T07:32:10;6.32;;;5.72;;
16330;SDS011;8275;48.206;16.340;2023-08-12T07:34:39;8.90;;;5.78;;
16330;SDS011;8275;48.206;16.340;2023-08-12T07:37:09;6.40;;;5.68;;
16330;SDS011;8275;48.206;16.340;2023-08-12T07:39:38;6.78;;;6.18;;
16330;SDS011;8275;48.206;16.340;2023-08-12T07:42:07;11.27;;;5.97;;
16330;SDS011;8275;48.206;16.340;2023-08-12T07:44:36;6.30;;;5.70;;
16330;SDS011;8275;48.206;16.340;2023-08-12T07:47:04;5.32;;;4.82;;
16330;SDS011;8275;48.206;16.340;2023-08-12T07:49:33;5.43;;;5.03;;
16330;SDS011;8275;48.206;16.340;2023-08-12T07:52:01;4.80;;;4.30;;
16330;SDS011;8275;48.206;16.340;2023-08-12T07:54:31;4.43;;;4.03;;
16330;SDS011;8275;48.206;16.340;2023-08-12T07:57:00;4.28;;;3.92;;
16330;SDS011;8275;48.206;16.340;2023-08-12T07:59:29;4.03;;;3.72;;
16330;SDS011;8275;48.206;16.340;2023-08-12T08:01:57;3.25;;;3.03;;
16330;SDS011;8275;48.206;16.340;2023-08-12T08:04:26;3.55;;;3.10;;
16330;SDS011;8275;48.206;16.340;2023-08-12T08:06:54;4.32;;;2.97;;
16330;SDS011;8275;48.206;16.340;2023-08-12T08:09:23;3.67;;;3.38;;
16330;SDS011;8275;48.206;16.340;2023-08-12T08:11:53;3.70;;;3.40;;
16330;SDS011;8275;48.206;16.340;2023-08-12T08:14:22;3.92;;;3.63;;
16330;SDS011;8275;48.206;16.340;2023-08-12T08:16:51;4.00;;;3.33;;
16330;SDS011;8275;48.206;16.340;2023-08-12T08:19:20;4.70;;;3.15;;
16330;SDS011;8275;48.206;16.340;2023-08-12T08:21:54;3.75;;;3.45;;
16330;SDS011;8275;48.206;16.340;2023-08-12T08:24:25;3.65;;;3.35;;
16330;SDS011;8275;48.206;16.340;2023-08-12T08:26:55;4.00;;;3.05;;
16330;SDS011;8275;48.206;16.340;2023-08-12T08:29:23;3.60;;;3.33;;
16330;SDS011;8275;48.206;16.340;2023-08-12T08:31:52;3.38;;;3.17;;
16330;SDS011;8275;48.206;16.340;2023-08-12T08:34:20;4.25;;;3.40;;
16330;SDS011;8275;48.206;16.340;2023-08-12T08:36:49;3.42;;;3.22;;
16330;SDS011;8275;48.206;16.340;2023-08-12T08:39:18;3.22;;;3.03;;
16330;SDS011;8275;48.206;16.340;2023-08-12T08:41:48;3.60;;;3.30;;
16330;SDS011;8275;48.206;16.340;2023-08-12T08:44:18;4.15;;;3.80;;
16330;SDS011;8275;48.206;16.340;2023-08-12T08:46:51;3.63;;;3.33;;
16330;SDS011;8275;48.206;16.340;2023-08-12T08:49:20;3.67;;;3.35;;
16330;SDS011;8275;48.206;16.340;2023-08-12T08:51:50;4.60;;;3.92;;
16330;SDS011;8275;48.206;16.340;2023-08-12T08:54:20;3.55;;;3.33;;
16330;SDS011;8275;48.206;16.340;2023-08-12T08:56:49;4.05;;;3.58;;
16330;SDS011;8275;48.206;16.340;2023-08-12T08:59:28;4.20;;;3.90;;
16330;SDS011;8275;48.206;16.340;2023-08-12T09:01:57;5.13;;;3.70;;
16330;SDS011;8275;48.206;16.340;2023-08-12T09:04:27;3.40;;;2.83;;
16330;SDS011;8275;48.206;16.340;2023-08-12T09:06:57;3.85;;;3.58;;
16330;SDS011;8275;48.206;16.340;2023-08-12T09:09:27;3.90;;;3.60;;
16330;SDS011;8275;48.206;16.340;2023-08-12T09:11:57;3.75;;;3.45;;
16330;SDS011;8275;48.206;16.340;2023-08-12T09:14:25;3.88;;;3.60;;
16330;SDS011;8275;48.206;16.340;2023-08-12T09:16:55;4.28;;;3.90;;
16330;SDS011;8275;48.206;16.340;2023-08-12T09:19:25;4.93;;;4.43;;
16330;SDS011;8275;48.206;16.340;2023-08-12T09:21:53;4.88;;;4.47;;
16330;SDS011;8275;48.206;16.340;2023-08-12T09:24:24;4.72;;;4.07;;
16330;SDS011;8275;48.206;16.340;2023-08-12T09:26:53;4.40;;;4.10;;
16330;SDS011;8275;48.206;16.340;2023-08-12T09:29:23;4.35;;;4.05;;
16330;SDS011;8275;48.206;16.340;2023-08-12T09:31:52;4.25;;;3.95;;
16330;SDS011;8275;48.206;16.340;2023-08-12T09:34:22;5.13;;;4.72;;
16330;SDS011;8275;48.206;16.340;2023-08-12T09:36:52;4.05;;;3.85;;
16330;SDS011;8275;48.206;16.340;2023-08-12T09:39:20;5.72;;;4.90;;
16330;SDS011;8275;48.206;16.340;2023-08-12T09:41:49;4.47;;;4.18;;
16330;SDS011;8275;48.206;16.340;2023-08-12T09:44:18;6.97;;;4.13;;
16330;SDS011;8275;48.206;16.340;2023-08-12T09:46:48;3.92;;;3.50;;
16330;SDS011;8275;48.206;16.340;2023-08-12T09:49:26;3.80;;;3.50;;
16330;SDS011;8275;48.206;16.340;2023-08-12T09:51:55;3.47;;;3.28;;
16330;SDS011;8275;48.206;16.340;2023-08-12T09:54:26;3.70;;;3.40;;
16330;SDS011;8275;48.206;16.340;2023-08-12T09:56:56;3.53;;;3.13;;
16330;SDS011;8275;48.206;16.340;2023-08-12T09:59:29;3.05;;;2.85;;
16330;SDS011;8275;48.206;16.340;2023-08-12T10:02:01;3.03;;;2.80;;
16330;SDS011;8275;48.206;16.340;2023-08-12T10:04:35;4.15;;;3.22;;
16330;SDS011;8275;48.206;16.340;2023-08-12T10:07:07;3.40;;;3.17;;
16330;SDS011;8275;48.206;16.340;2023-08-12T10:09:37;3.35;;;3.15;;
16330;SDS011;8275;48.206;16.340;2023-08-12T10:12:06;3.40;;;3.10;;
16330;SDS011;8275;48.206;16.340;2023-08-12T10:14:37;3.53;;;3.20;;
16330;SDS011;8275;48.206;16.340;2023-08-12T10:17:06;4.28;;;3.90;;
16330;SDS011;8275;48.206;16.340;2023-08-12T10:19:37;3.13;;;2.83;;
16330;SDS011;8275;48.206;16.340;2023-08-12T10:22:11;3.25;;;3.05;;
16330;SDS011;8275;48.206;16.340;2023-08-12T10:24:42;3.30;;;3.08;;
16330;SDS011;8275;48.206;16.340;2023-08-12T10:27:12;4.03;;;3.60;;
16330;SDS011;8275;48.206;16.340;2023-08-12T10:29:43;3.15;;;2.88;;
16330;SDS011;8275;48.206;16.340;2023-08-12T10:32:13;3.33;;;3.00;;
16330;SDS011;8275;48.206;16.340;2023-08-12T10:34:43;3.03;;;2.67;;
16330;SDS011;8275;48.206;16.340;2023-08-12T10:37:12;4.95;;;2.97;;
16330;SDS011;8275;48.206;16.340;2023-08-12T10:39:42;3.00;;;2.63;;
16330;SDS011;8275;48.206;16.340;2023-08-12T10:42:10;2.70;;;2.50;;
16330;SDS011;8275;48.206;16.340;2023-08-12T10:44:40;2.90;;;2.70;;
16330;SDS011;8275;48.206;16.340;2023-08-12T10:47:18;4.75;;;2.42;;
16330;SDS011;8275;48.206;16.340;2023-08-12T10:49:49;3.83;;;2.70;;
16330;SDS011;8275;48.206;16.340;2023-08-12T10:52:27;3.28;;;3.08;;
16330;SDS011;8275;48.206;16.340;2023-08-12T10:55:10;3.38;;;3.08;;
16330;SDS011;8275;48.206;16.340;2023-08-12T10:57:45;3.58;;;2.97;;
16330;SDS011;8275;48.206;16.340;2023-08-12T11:00:14;6.68;;;2.97;;
16330;SDS011;8275;48.206;16.340;2023-08-12T11:02:48;3.35;;;3.05;;
16330;SDS011;8275;48.206;16.340;2023-08-12T11:05:20;4.95;;;3.70;;
16330;SDS011;8275;48.206;16.340;2023-08-12T11:07:55;3.22;;;3.03;;
16330;SDS011;8275;48.206;16.340;2023-08-12T11:10:28;2.92;;;2.72;;
16330;SDS011;8275;48.206;16.340;2023-08-12T11:13:00;2.92;;;2.70;;
16330;SDS011;8275;48.206;16.340;2023-08-12T11:15:30;2.38;;;2.28;;
16330;SDS011;8275;48.206;16.340;2023-08-12T11:18:02;4.35;;;2.67;;
16330;SDS011;8275;48.206;16.340;2023-08-12T11:20:33;2.97;;;2.78;;
16330;SDS011;8275;48.206;16.340;2023-08-12T11:23:03;2.85;;;2.65;;
16330;SDS011;8275;48.206;16.340;2023-08-12T11:25:34;3.50;;;2.97;;
16330;SDS011;8275;48.206;16.340;2023-08-12T11:28:05;3.05;;;2.85;;
16330;SDS011;8275;48.206;16.340;2023-08-12T11:30:34;2.50;;;2.30;;
16330;SDS011;8275;48.206;16.340;2023-08-12T11:33:03;1.95;;;1.85;;
16330;SDS011;8275;48.206;16.340;2023-08-12T11:35:34;2.30;;;2.10;;
16330;SDS011;8275;48.206;16.340;2023-08-12T11:38:04;3.50;;;2.30;;
16330;SDS011;8275;48.206;16.340;2023-08-12T11:40:34;2.80;;;2.60;;
16330;SDS011;8275;48.206;16.340;2023-08-12T11:43:03;2.90;;;2.65;;
16330;SDS011;8275;48.206;16.340;2023-08-12T11:45:32;2.92;;;2.67;;
16330;SDS011;8275;48.206;16.340;2023-08-12T11:48:01;3.33;;;2.50;;
16330;SDS011;8275;48.206;16.340;2023-08-12T11:50:31;2.47;;;2.38;;
16330;SDS011;8275;48.206;16.340;2023-08-12T11:53:01;2.65;;;2.42;;
16330;SDS011;8275;48.206;16.340;2023-08-12T11:55:30;5.95;;;2.60;;
16330;SDS011;8275;48.206;16.340;2023-08-12T11:57:59;2.45;;;2.35;;
16330;SDS011;8275;48.206;16.340;2023-08-12T12:00:28;3.00;;;2.80;;
16330;SDS011;8275;48.206;16.340;2023-08-12T12:02:57;2.13;;;2.03;;
16330;SDS011;8275;48.206;16.340;2023-08-12T12:05:26;2.25;;;2.05;;
16330;SDS011;8275;48.206;16.340;2023-08-12T12:07:58;2.78;;;2.58;;
16330;SDS011;8275;48.206;16.340;2023-08-12T12:10:29;2.50;;;2.40;;
16330;SDS011;8275;48.206;16.340;2023-08-12T12:13:01;2.28;;;2.13;;
16330;SDS011;8275;48.206;16.340;2023-08-12T12:15:31;2.45;;;2.25;;
16330;SDS011;8275;48.206;16.340;2023-08-12T12:18:09;2.53;;;2.33;;
16330;SDS011;8275;48.206;16.340;2023-08-12T12:20:42;2.45;;;2.35;;
16330;SDS011;8275;48.206;16.340;2023-08-12T12:23:26;4.70;;;3.50;;
16330;SDS011;8275;48.206;16.340;2023-08-12T12:26:00;3.28;;;3.08;;
16330;SDS011;8275;48.206;16.340;2023-08-12T12:28:31;3.25;;;3.05;;
16330;SDS011;8275;48.206;16.340;2023-08-12T12:30:59;2.22;;;2.03;;
16330;SDS011;8275;48.206;16.340;2023-08-12T12:33:28;2.60;;;2.40;;
16330;SDS011;8275;48.206;16.340;2023-08-12T12:35:57;2.42;;;2.22;;
16330;SDS011;8275;48.206;16.340;2023-08-12T12:38:29;4.22;;;2.00;;
16330;SDS011;8275;48.206;16.340;2023-08-12T12:40:58;3.13;;;1.90;;
16330;SDS011;8275;48.206;16.340;2023-08-12T12:43:27;3.10;;;2.90;;
16330;SDS011;8275;48.206;16.340;2023-08-12T12:45:56;2.28;;;2.17;;
16330;SDS011;8275;48.206;16.340;2023-08-12T12:48:25;3.08;;;2.17;;
16330;SDS011;8275;48.206;16.340;2023-08-12T12:50:53;3.75;;;2.03;;
16330;SDS011;8275;48.206;16.340;2023-08-12T12:53:22;2.92;;;2.45;;
16330;SDS011;8275;48.206;16.340;2023-08-12T12:55:50;2.53;;;2.33;;
16330;SDS011;8275;48.206;16.340;2023-08-12T12:58:19;1.90;;;1.80;;
16330;SDS011;8275;48.206;16.340;2023-08-12T13:00:51;3.75;;;2.60;;
16330;SDS011;8275;48.206;16.340;2023-08-12T13:03:19;2.33;;;2.22;;
16330;SDS011;8275;48.206;16.340;2023-08-12T13:05:49;2.92;;;2.72;;
16330;SDS011;8275;48.206;16.340;2023-08-12T13:08:18;2.17;;;2.05;;
16330;SDS011;8275;48.206;16.340;2023-08-12T13:10:46;2.75;;;1.95;;
16330;SDS011;8275;48.206;16.340;2023-08-12T13:13:15;2.65;;;2.55;;
16330;SDS011;8275;48.206;16.340;2023-08-12T13:15:45;2.50;;;2.30;;
16330;SDS011;8275;48.206;16.340;2023-08-12T13:18:15;2.15;;;2.05;;
16330;SDS011;8275;48.206;16.340;2023-08-12T13:20:44;2.03;;;1.92;;
16330;SDS011;8275;48.206;16.340;2023-08-12T13:23:13;2.17;;;2.08;;
16330;SDS011;8275;48.206;16.340;2023-08-12T13:25:42;3.55;;;2.28;;
16330;SDS011;8275;48.206;16.340;2023-08-12T13:28:11;2.50;;;2.30;;
16330;SDS011;8275;48.206;16.340;2023-08-12T13:30:39;2.58;;;2.35;;
16330;SDS011;8275;48.206;16.340;2023-08-12T13:33:08;3.30;;;3.03;;
16330;SDS011;8275;48.206;16.340;2023-08-12T13:35:38;3.97;;;2.10;;
16330;SDS011;8275;48.206;16.340;2023-08-12T13:38:06;2.22;;;2.08;;
16330;SDS011;8275;48.206;16.340;2023-08-12T13:40:35;2.17;;;2.05;;
16330;SDS011;8275;48.206;16.340;2023-08-12T13:43:03;1.85;;;1.75;;
16330;SDS011;8275;48.206;16.340;2023-08-12T13:45:32;1.70;;;1.60;;
16330;SDS011;8275;48.206;16.340;2023-08-12T13:48:00;2.28;;;2.10;;
16330;SDS011;8275;48.206;16.340;2023-08-12T13:50:29;3.28;;;2.10;;
16330;SDS011;8275;48.206;16.340;2023-08-12T13:53:00;2.15;;;2.05;;
16330;SDS011;8275;48.206;16.340;2023-08-12T13:55:29;2.42;;;2.33;;
16330;SDS011;8275;48.206;16.340;2023-08-12T13:57:57;2.40;;;2.20;;
16330;SDS011;8275;48.206;16.340;2023-08-12T14:00:26;2.20;;;2.10;;
16330;SDS011;8275;48.206;16.340;2023-08-12T14:02:54;2.80;;;2.60;;
16330;SDS011;8275;48.206;16.340;2023-08-12T14:05:23;1.92;;;1.83;;
16330;SDS011;8275;48.206;16.340;2023-08-12T14:07:52;1.70;;;1.60;;
16330;SDS011;8275;48.206;16.340;2023-08-12T14:10:21;3.78;;;2.67;;
16330;SDS011;8275;48.206;16.340;2023-08-12T14:12:50;1.80;;;1.70;;
16330;SDS011;8275;48.206;16.340;2023-08-12T14:15:18;2.22;;;1.92;;
16330;SDS011;8275;48.206;16.340;2023-08-12T14:17:47;3.40;;;2.15;;
16330;SDS011;8275;48.206;16.340;2023-08-12T14:20:16;2.47;;;2.28;;
16330;SDS011;8275;48.206;16.340;2023-08-12T14:22:45;1.88;;;1.77;;
16330;SDS011;8275;48.206;16.340;2023-08-12T14:25:13;2.50;;;2.30;;
16330;SDS011;8275;48.206;16.340;2023-08-12T14:27:43;2.20;;;2.10;;
16330;SDS011;8275;48.206;16.340;2023-08-12T14:30:12;2.85;;;2.65;;
16330;SDS011;8275;48.206;16.340;2023-08-12T14:32:41;2.30;;;2.20;;
16330;SDS011;8275;48.206;16.340;2023-08-12T14:35:09;2.28;;;2.17;;
16330;SDS011;8275;48.206;16.340;2023-08-12T14:37:38;1.92;;;1.83;;
16330;SDS011;8275;48.206;16.340;2023-08-12T14:40:07;2.20;;;2.08;;
16330;SDS011;8275;48.206;16.340;2023-08-12T14:42:37;2.10;;;2.00;;
16330;SDS011;8275;48.206;16.340;2023-08-12T14:45:07;2.75;;;2.55;;
16330;SDS011;8275;48.206;16.340;2023-08-12T14:47:37;2.25;;;2.15;;
16330;SDS011;8275;48.206;16.340;2023-08-12T14:50:06;2.78;;;2.28;;
16330;SDS011;8275;48.206;16.340;2023-08-12T14:52:36;2.03;;;1.92;;
16330;SDS011;8275;48.206;16.340;2023-08-12T14:55:05;2.28;;;2.17;;
16330;SDS011;8275;48.206;16.340;2023-08-12T14:57:34;1.85;;;1.73;;
16330;SDS011;8275;48.206;16.340;2023-08-12T15:00:03;2.22;;;2.10;;
16330;SDS011;8275;48.206;16.340;2023-08-12T15:02:38;1.92;;;1.83;;